sensor_id;sensor_type;location;lat;lon;timestamp;pressure;altitude;pressure_sealevel;temperature;humidity
40920;BME280;26652;50.280;19.026;2023-05-10T00:01:50;98554.63;;;10.43;59.44
40920;BME280;26652;50.280;19.026;2023-05-10T00:04:12;98552.63;;;10.38;59.37
40920;BME280;26652;50.280;19.026;2023-05-10T00:06:20;98547.22;;;10.19;60.45
40920;BME280;26652;50.280;19.026;2023-05-10T00:08:35;98539.75;;;10.17;60.30
40920;BME280;26652;50.280;19.026;2023-05-10T00:10:49;98546.31;;;10.11;60.14
40920;BME280;26652;50.280;19.026;2023-05-10T00:13:05;98541.69;;;10.15;60.54
40920;BME280;26652;50.280;19.026;2023-05-10T00:15:14;98542.75;;;9.98;60.74
40920;BME280;26652;50.280;19.026;2023-05-10T00:17:32;98544.19;;;10.00;60.58
40920;BME280;26652;50.280;19.026;2023-05-10T00:19:46;98538.91;;;10.02;61.53
40920;BME280;26652;50.280;19.026;2023-05-10T00:22:02;98540.72;;;9.93;63.27
40920;BME280;26652;50.280;19.026;2023-05-10T00:24:10;98547.72;;;9.91;62.00
40920;BME280;26652;50.280;19.026;2023-05-10T00:26:24;98540.28;;;9.90;61.34
40920;BME280;26652;50.280;19.026;2023-05-10T00:28:33;98533.78;;;9.87;61.85
40920;BME280;26652;50.280;19.026;2023-05-10T00:31:02;98538.88;;;9.87;61.24
40920;BME280;26652;50.280;19.026;2023-05-10T00:33:09;98539.38;;;9.82;61.61
40920;BME280;26652;50.280;19.026;2023-05-10T00:35:20;98533.94;;;9.86;62.08
40920;BME280;26652;50.280;19.026;2023-05-10T00:37:35;98533.66;;;9.80;61.79
40920;BME280;26652;50.280;19.026;2023-05-10T00:39:57;98533.66;;;9.80;62.71
40920;BME280;26652;50.280;19.026;2023-05-10T00:42:17;98523.22;;;9.75;62.80
40920;BME280;26652;50.280;19.026;2023-05-10T00:44:29;98528.34;;;9.67;62.73
40920;BME280;26652;50.280;19.026;2023-05-10T00:46:37;98522.91;;;9.47;62.90
40920;BME280;26652;50.280;19.026;2023-05-10T00:48:48;98518.69;;;9.40;63.43
40920;BME280;26652;50.280;19.026;2023-05-10T00:50:54;98528.03;;;9.39;63.66
40920;BME280;26652;50.280;19.026;2023-05-10T00:53:07;98531.72;;;9.37;63.89
40920;BME280;26652;50.280;19.026;2023-05-10T00:55:13;98520.16;;;9.34;63.52
40920;BME280;26652;50.280;19.026;2023-05-10T00:57:26;98520.28;;;9.10;64.18
40920;BME280;26652;50.280;19.026;2023-05-10T00:59:39;98509.97;;;9.11;64.29
40920;BME280;26652;50.280;19.026;2023-05-10T01:01:53;98518.03;;;9.15;65.09
40920;BME280;26652;50.280;19.026;2023-05-10T01:04:01;98519.00;;;9.14;65.30
40920;BME280;26652;50.280;19.026;2023-05-10T01:06:14;98524.69;;;9.16;65.79
40920;BME280;26652;50.280;19.026;2023-05-10T01:08:28;98517.25;;;9.14;65.00
40920;BME280;26652;50.280;19.026;2023-05-10T01:10:40;98515.37;;;9.08;65.82
40920;BME280;26652;50.280;19.026;2023-05-10T01:12:47;98514.13;;;9.04;65.10
40920;BME280;26652;50.280;19.026;2023-05-10T01:15:02;98509.09;;;8.88;65.97
40920;BME280;26652;50.280;19.026;2023-05-10T01:17:11;98508.63;;;8.84;66.06
40920;BME280;26652;50.280;19.026;2023-05-10T01:19:27;98510.22;;;8.85;66.63
40920;BME280;26652;50.280;19.026;2023-05-10T01:27:14;98503.97;;;8.49;67.82
40920;BME280;26652;50.280;19.026;2023-05-10T01:35:03;98501.94;;;8.44;67.63
40920;BME280;26652;50.280;19.026;2023-05-10T01:37:13;98504.00;;;8.41;67.89
40920;BME280;26652;50.280;19.026;2023-05-10T01:39:40;98506.38;;;8.34;68.91
40920;BME280;26652;50.280;19.026;2023-05-10T01:42:02;98503.84;;;8.42;68.10
40920;BME280;26652;50.280;19.026;2023-05-10T01:44:41;98504.34;;;8.30;69.54
40920;BME280;26652;50.280;19.026;2023-05-10T01:46:57;98503.06;;;8.34;68.72
40920;BME280;26652;50.280;19.026;2023-05-10T01:49:25;98501.34;;;8.18;69.05
40920;BME280;26652;50.280;19.026;2023-05-10T01:51:47;98494.84;;;8.07;69.62
40920;BME280;26652;50.280;19.026;2023-05-10T01:54:08;98492.47;;;8.06;69.96
40920;BME280;26652;50.280;19.026;2023-05-10T01:56:18;98494.84;;;7.99;71.03
40920;BME280;26652;50.280;19.026;2023-05-10T01:58:34;98497.69;;;8.04;70.08
40920;BME280;26652;50.280;19.026;2023-05-10T02:01:03;98493.25;;;8.06;70.20
40920;BME280;26652;50.280;19.026;2023-05-10T02:03:16;98487.09;;;8.09;69.94
40920;BME280;26652;50.280;19.026;2023-05-10T02:05:26;98488.34;;;8.05;69.79
40920;BME280;26652;50.280;19.026;2023-05-10T02:07:40;98482.00;;;8.09;69.06
40920;BME280;26652;50.280;19.026;2023-05-10T02:09:48;98479.47;;;8.09;68.99
40920;BME280;26652;50.280;19.026;2023-05-10T02:11:58;98481.84;;;8.10;70.07
40920;BME280;26652;50.280;19.026;2023-05-10T02:14:05;98484.06;;;8.13;69.01
40920;BME280;26652;50.280;19.026;2023-05-10T02:16:19;98472.97;;;8.06;69.89
40920;BME280;26652;50.280;19.026;2023-05-10T02:18:28;98467.91;;;7.98;70.64
40920;BME280;26652;50.280;19.026;2023-05-10T02:20:39;98468.72;;;7.99;69.81
40920;BME280;26652;50.280;19.026;2023-05-10T02:22:49;98474.41;;;7.84;71.11
40920;BME280;26652;50.280;19.026;2023-05-10T02:24:59;98472.84;;;7.92;70.46
40920;BME280;26652;50.280;19.026;2023-05-10T02:27:06;98463.19;;;7.87;70.92
40920;BME280;26652;50.280;19.026;2023-05-10T02:29:17;98469.66;;;7.90;70.31
40920;BME280;26652;50.280;19.026;2023-05-10T02:31:23;98465.88;;;7.94;70.79
40920;BME280;26652;50.280;19.026;2023-05-10T02:33:34;98475.06;;;7.95;70.74
40920;BME280;26652;50.280;19.026;2023-05-10T02:35:41;98472.69;;;7.85;70.77
40920;BME280;26652;50.280;19.026;2023-05-10T02:37:53;98463.50;;;7.76;71.49
40920;BME280;26652;50.280;19.026;2023-05-10T02:39:59;98457.47;;;7.77;70.94
40920;BME280;26652;50.280;19.026;2023-05-10T02:42:18;98459.69;;;7.72;70.89
40920;BME280;26652;50.280;19.026;2023-05-10T02:44:30;98469.03;;;7.79;71.63
40920;BME280;26652;50.280;19.026;2023-05-10T02:46:43;98466.50;;;7.63;73.65
40920;BME280;26652;50.280;19.026;2023-05-10T02:49:02;98469.34;;;7.68;72.89
40920;BME280;26652;50.280;19.026;2023-05-10T02:51:25;98459.38;;;7.67;72.28
40920;BME280;26652;50.280;19.026;2023-05-10T02:53:36;98463.50;;;7.60;72.30
40920;BME280;26652;50.280;19.026;2023-05-10T02:55:52;98469.03;;;7.63;72.22
40920;BME280;26652;50.280;19.026;2023-05-10T02:58:02;98462.53;;;7.52;72.69
40920;BME280;26652;50.280;19.026;2023-05-10T03:00:13;98470.59;;;7.48;73.78
40920;BME280;26652;50.280;19.026;2023-05-10T03:02:19;98466.16;;;7.50;74.28
40920;BME280;26652;50.280;19.026;2023-05-10T03:04:29;98466.78;;;7.36;74.51
40920;BME280;26652;50.280;19.026;2023-05-10T03:06:45;98467.09;;;7.41;73.62
40920;BME280;26652;50.280;19.026;2023-05-10T03:08:54;98467.25;;;7.39;73.43
40920;BME280;26652;50.280;19.026;2023-05-10T03:11:22;98467.72;;;7.35;74.30
40920;BME280;26652;50.280;19.026;2023-05-10T03:14:02;98468.69;;;7.50;73.63
40920;BME280;26652;50.280;19.026;2023-05-10T03:16:36;98472.50;;;7.46;73.40
40920;BME280;26652;50.280;19.026;2023-05-10T03:19:01;98470.13;;;7.44;73.33
40920;BME280;26652;50.280;19.026;2023-05-10T03:21:15;98458.72;;;7.24;75.16
40920;BME280;26652;50.280;19.026;2023-05-10T03:23:27;98468.37;;;7.37;74.15
40920;BME280;26652;50.280;19.026;2023-05-10T03:25:35;98472.66;;;7.44;73.71
40920;BME280;26652;50.280;19.026;2023-05-10T03:27:44;98468.53;;;7.43;75.01
40920;BME280;26652;50.280;19.026;2023-05-10T03:29:54;98465.38;;;7.41;74.17
40920;BME280;26652;50.280;19.026;2023-05-10T03:32:00;98471.38;;;7.48;74.44
40920;BME280;26652;50.280;19.026;2023-05-10T03:34:22;98471.56;;;7.55;74.72
40920;BME280;26652;50.280;19.026;2023-05-10T03:36:28;98464.13;;;7.53;75.34
40920;BME280;26652;50.280;19.026;2023-05-10T03:38:45;98459.53;;;7.57;74.43
40920;BME280;26652;50.280;19.026;2023-05-10T03:40:59;98461.13;;;7.58;73.58
40920;BME280;26652;50.280;19.026;2023-05-10T03:43:26;98454.78;;;7.54;73.38
40920;BME280;26652;50.280;19.026;2023-05-10T03:45:46;98454.94;;;7.52;73.49
40920;BME280;26652;50.280;19.026;2023-05-10T03:48:03;98463.81;;;7.65;74.12
40920;BME280;26652;50.280;19.026;2023-05-10T03:50:16;98457.78;;;7.58;75.26
40920;BME280;26652;50.280;19.026;2023-05-10T03:52:28;98459.53;;;7.65;74.77
40920;BME280;26652;50.280;19.026;2023-05-10T03:54:43;98448.28;;;7.76;74.76
40920;BME280;26652;50.280;19.026;2023-05-10T03:57:03;98459.34;;;8.24;72.16
40920;BME280;26652;50.280;19.026;2023-05-10T03:59:11;98461.94;;;8.63;69.20
40920;BME280;26652;50.280;19.026;2023-05-10T04:01:31;98465.84;;;8.73;68.75
40920;BME280;26652;50.280;19.026;2023-05-10T04:03:45;98468.63;;;8.95;67.23
40920;BME280;26652;50.280;19.026;2023-05-10T04:06:04;98462.22;;;9.07;66.09
40920;BME280;26652;50.280;19.026;2023-05-10T04:08:19;98473.91;;;9.16;66.42
40920;BME280;26652;50.280;19.026;2023-05-10T04:10:33;98467.63;;;9.04;65.81
40920;BME280;26652;50.280;19.026;2023-05-10T04:12:41;98473.09;;;8.84;65.96
40920;BME280;26652;50.280;19.026;2023-05-10T04:15:04;98470.16;;;8.65;66.89
40920;BME280;26652;50.280;19.026;2023-05-10T04:17:11;98470.66;;;8.60;67.22
40920;BME280;26652;50.280;19.026;2023-05-10T04:19:28;98469.72;;;8.53;67.80
40920;BME280;26652;50.280;19.026;2023-05-10T04:21:33;98470.22;;;8.48;67.48
40920;BME280;26652;50.280;19.026;2023-05-10T04:23:49;98467.53;;;8.42;67.76
40920;BME280;26652;50.280;19.026;2023-05-10T04:26:01;98473.06;;;8.53;67.46
40920;BME280;26652;50.280;19.026;2023-05-10T04:28:12;98471.94;;;8.56;67.21
40920;BME280;26652;50.280;19.026;2023-05-10T04:30:20;98473.19;;;8.60;66.92
40920;BME280;26652;50.280;19.026;2023-05-10T04:32:40;98471.59;;;8.67;66.80
40920;BME280;26652;50.280;19.026;2023-05-10T04:34:55;98472.38;;;8.68;67.07
40920;BME280;26652;50.280;19.026;2023-05-10T04:37:24;98465.88;;;9.04;66.04
40920;BME280;26652;50.280;19.026;2023-05-10T04:39:36;98460.81;;;9.50;64.45
40920;BME280;26652;50.280;19.026;2023-05-10T04:41:50;98479.41;;;10.11;62.51
40920;BME280;26652;50.280;19.026;2023-05-10T04:43:59;98481.78;;;11.37;59.26
40920;BME280;26652;50.280;19.026;2023-05-10T04:46:21;98479.13;;;12.57;55.71
40920;BME280;26652;50.280;19.026;2023-05-10T04:48:31;98481.84;;;13.77;52.26
40920;BME280;26652;50.280;19.026;2023-05-10T04:50:55;98486.34;;;14.28;50.27
40920;BME280;26652;50.280;19.026;2023-05-10T04:53:10;98488.94;;;13.75;50.66
40920;BME280;26652;50.280;19.026;2023-05-10T04:55:28;98489.63;;;13.16;51.93
40920;BME280;26652;50.280;19.026;2023-05-10T04:57:37;98485.97;;;12.50;53.49
40920;BME280;26652;50.280;19.026;2023-05-10T04:59:54;98476.59;;;11.94;55.48
40920;BME280;26652;50.280;19.026;2023-05-10T05:02:02;98480.28;;;11.70;56.16
40920;BME280;26652;50.280;19.026;2023-05-10T05:04:20;98477.37;;;11.52;56.84
40920;BME280;26652;50.280;19.026;2023-05-10T05:06:28;98477.09;;;11.40;57.28
40920;BME280;26652;50.280;19.026;2023-05-10T05:08:42;98475.22;;;11.28;57.12
40920;BME280;26652;50.280;19.026;2023-05-10T05:10:57;98479.06;;;10.88;58.28
40920;BME280;26652;50.280;19.026;2023-05-10T05:13:08;98472.41;;;10.87;58.93
40920;BME280;26652;50.280;19.026;2023-05-10T05:15:27;98465.97;;;10.91;59.29
40920;BME280;26652;50.280;19.026;2023-05-10T05:17:41;98469.06;;;10.86;59.68
40920;BME280;26652;50.280;19.026;2023-05-10T05:19:49;98465.38;;;10.74;59.45
40920;BME280;26652;50.280;19.026;2023-05-10T05:22:01;98470.63;;;10.87;60.21
40920;BME280;26652;50.280;19.026;2023-05-10T05:24:34;98467.19;;;10.95;59.81
40920;BME280;26652;50.280;19.026;2023-05-10T05:26:47;98469.31;;;10.91;60.03
40920;BME280;26652;50.280;19.026;2023-05-10T05:28:55;98463.44;;;10.91;59.46
40920;BME280;26652;50.280;19.026;2023-05-10T05:31:13;98461.56;;;10.99;59.54
40920;BME280;26652;50.280;19.026;2023-05-10T05:33:21;98472.12;;;10.96;59.42
40920;BME280;26652;50.280;19.026;2023-05-10T05:35:40;98471.47;;;11.09;59.66
40920;BME280;26652;50.280;19.026;2023-05-10T05:37:48;98470.78;;;11.00;59.26
40920;BME280;26652;50.280;19.026;2023-05-10T05:40:02;98460.34;;;10.95;60.71
40920;BME280;26652;50.280;19.026;2023-05-10T05:42:10;98455.34;;;11.02;59.93
40920;BME280;26652;50.280;19.026;2023-05-10T05:44:21;98472.28;;;11.09;59.29
40920;BME280;26652;50.280;19.026;2023-05-10T05:46:40;98461.00;;;11.19;59.78
40920;BME280;26652;50.280;19.026;2023-05-10T05:48:59;98462.41;;;11.21;58.46
40920;BME280;26652;50.280;19.026;2023-05-10T05:51:16;98468.53;;;11.27;58.67
40920;BME280;26652;50.280;19.026;2023-05-10T05:53:29;98466.28;;;11.38;58.93
40920;BME280;26652;50.280;19.026;2023-05-10T05:55:57;98467.31;;;11.44;58.10
40920;BME280;26652;50.280;19.026;2023-05-10T05:58:27;98461.91;;;11.54;58.18
40920;BME280;26652;50.280;19.026;2023-05-10T06:01:08;98470.63;;;11.66;57.73
40920;BME280;26652;50.280;19.026;2023-05-10T06:03:23;98470.47;;;11.89;58.13
40920;BME280;26652;50.280;19.026;2023-05-10T06:05:51;98462.63;;;11.90;57.77
40920;BME280;26652;50.280;19.026;2023-05-10T06:08:12;98461.94;;;12.03;58.07
40920;BME280;26652;50.280;19.026;2023-05-10T06:10:22;98459.28;;;12.18;57.47
40920;BME280;26652;50.280;19.026;2023-05-10T06:12:36;98460.31;;;12.23;56.38
40920;BME280;26652;50.280;19.026;2023-05-10T06:15:00;98459.53;;;12.23;55.84
40920;BME280;26652;50.280;19.026;2023-05-10T06:17:14;98450.16;;;12.30;55.58
40920;BME280;26652;50.280;19.026;2023-05-10T06:19:22;98463.53;;;12.38;55.40
40920;BME280;26652;50.280;19.026;2023-05-10T06:21:42;98460.44;;;12.50;54.99
40920;BME280;26652;50.280;19.026;2023-05-10T06:24:07;98464.44;;;12.65;55.82
40920;BME280;26652;50.280;19.026;2023-05-10T06:26:27;98468.41;;;12.74;54.33
40920;BME280;26652;50.280;19.026;2023-05-10T06:28:40;98467.44;;;12.75;53.96
40920;BME280;26652;50.280;19.026;2023-05-10T06:30:57;98469.63;;;12.85;53.27
40920;BME280;26652;50.280;19.026;2023-05-10T06:33:11;98475.75;;;12.91;52.44
40920;BME280;26652;50.280;19.026;2023-05-10T06:35:23;98472.66;;;13.02;52.97
40920;BME280;26652;50.280;19.026;2023-05-10T06:37:41;98485.31;;;13.23;52.35
40920;BME280;26652;50.280;19.026;2023-05-10T06:39:53;98465.47;;;13.25;51.59
40920;BME280;26652;50.280;19.026;2023-05-10T06:42:06;98468.44;;;13.35;51.26
40920;BME280;26652;50.280;19.026;2023-05-10T06:44:20;98471.97;;;13.54;52.21
40920;BME280;26652;50.280;19.026;2023-05-10T06:46:36;98481.25;;;13.68;51.09
40920;BME280;26652;50.280;19.026;2023-05-10T06:49:01;98472.19;;;13.79;50.77
40920;BME280;26652;50.280;19.026;2023-05-10T06:51:10;98469.25;;;14.02;49.83
40920;BME280;26652;50.280;19.026;2023-05-10T06:53:38;98470.81;;;14.10;49.76
40920;BME280;26652;50.280;19.026;2023-05-10T06:55:52;98469.59;;;14.38;49.54
40920;BME280;26652;50.280;19.026;2023-05-10T06:58:08;98465.78;;;14.61;49.29
40920;BME280;26652;50.280;19.026;2023-05-10T07:00:17;98472.62;;;14.80;47.48
40920;BME280;26652;50.280;19.026;2023-05-10T07:02:27;98468.63;;;14.91;46.80
40920;BME280;26652;50.280;19.026;2023-05-10T07:04:33;98471.69;;;15.13;46.95
40920;BME280;26652;50.280;19.026;2023-05-10T07:06:47;98472.72;;;15.36;45.57
40920;BME280;26652;50.280;19.026;2023-05-10T07:08:55;98463.50;;;15.85;45.06
40920;BME280;26652;50.280;19.026;2023-05-10T07:11:09;98461.66;;;16.54;43.59
40920;BME280;26652;50.280;19.026;2023-05-10T07:13:17;98465.66;;;17.16;43.60
40920;BME280;26652;50.280;19.026;2023-05-10T07:15:31;98467.44;;;17.16;41.05
40920;BME280;26652;50.280;19.026;2023-05-10T07:17:40;98460.78;;;18.03;41.81
40920;BME280;26652;50.280;19.026;2023-05-10T07:19:54;98466.84;;;18.72;42.61
40920;BME280;26652;50.280;19.026;2023-05-10T07:22:12;98477.16;;;19.29;39.36
40920;BME280;26652;50.280;19.026;2023-05-10T07:24:32;98473.28;;;19.77;38.66
40920;BME280;26652;50.280;19.026;2023-05-10T07:26:38;98480.41;;;19.08;37.55
40920;BME280;26652;50.280;19.026;2023-05-10T07:28:52;98473.25;;;19.26;37.97
40920;BME280;26652;50.280;19.026;2023-05-10T07:31:00;98473.16;;;19.21;36.96
40920;BME280;26652;50.280;19.026;2023-05-10T07:33:28;98476.87;;;19.42;37.41
40920;BME280;26652;50.280;19.026;2023-05-10T07:35:42;98474.59;;;19.96;38.74
40920;BME280;26652;50.280;19.026;2023-05-10T07:37:54;98466.81;;;19.74;35.13
40920;BME280;26652;50.280;19.026;2023-05-10T07:40:03;98464.06;;;19.81;36.08
40920;BME280;26652;50.280;19.026;2023-05-10T07:42:14;98451.09;;;19.76;36.17
40920;BME280;26652;50.280;19.026;2023-05-10T07:44:23;98458.69;;;20.21;34.83
40920;BME280;26652;50.280;19.026;2023-05-10T07:46:34;98465.03;;;20.52;37.01
40920;BME280;26652;50.280;19.026;2023-05-10T07:48:53;98464.38;;;20.40;34.43
40920;BME280;26652;50.280;19.026;2023-05-10T07:51:11;98460.59;;;20.31;34.77
40920;BME280;26652;50.280;19.026;2023-05-10T07:53:20;98452.28;;;20.07;35.56
40920;BME280;26652;50.280;19.026;2023-05-10T07:55:38;98457.00;;;19.93;35.16
40920;BME280;26652;50.280;19.026;2023-05-10T07:57:47;98460.44;;;20.37;35.11
40920;BME280;26652;50.280;19.026;2023-05-10T08:00:01;98455.00;;;20.55;33.88
40920;BME280;26652;50.280;19.026;2023-05-10T08:02:10;98455.78;;;20.78;34.00
40920;BME280;26652;50.280;19.026;2023-05-10T08:04:23;98449.28;;;20.80;35.22
40920;BME280;26652;50.280;19.026;2023-05-10T08:06:42;98458.12;;;20.58;33.98
40920;BME280;26652;50.280;19.026;2023-05-10T08:08:56;98456.63;;;20.62;34.44
40920;BME280;26652;50.280;19.026;2023-05-10T08:11:01;98444.19;;;20.85;33.73
40920;BME280;26652;50.280;19.026;2023-05-10T08:13:21;98449.69;;;21.21;32.84
40920;BME280;26652;50.280;19.026;2023-05-10T08:15:57;98459.63;;;21.02;32.95
40920;BME280;26652;50.280;19.026;2023-05-10T08:18:06;98438.47;;;21.10;33.18
40920;BME280;26652;50.280;19.026;2023-05-10T08:20:20;98448.78;;;21.05;33.18
40920;BME280;26652;50.280;19.026;2023-05-10T08:22:28;98436.50;;;20.96;33.50
40920;BME280;26652;50.280;19.026;2023-05-10T08:24:39;98450.72;;;21.20;33.71
40920;BME280;26652;50.280;19.026;2023-05-10T08:26:47;98449.06;;;21.09;33.02
40920;BME280;26652;50.280;19.026;2023-05-10T08:29:02;98455.19;;;20.49;32.86
40920;BME280;26652;50.280;19.026;2023-05-10T08:31:15;98456.97;;;20.48;33.77
40920;BME280;26652;50.280;19.026;2023-05-10T08:33:26;98455.75;;;20.34;32.95
40920;BME280;26652;50.280;19.026;2023-05-10T08:35:45;98445.00;;;19.65;32.82
40920;BME280;26652;50.280;19.026;2023-05-10T08:37:59;98444.13;;;20.15;32.85
40920;BME280;26652;50.280;19.026;2023-05-10T08:40:13;98461.84;;;20.06;32.78
40920;BME280;26652;50.280;19.026;2023-05-10T08:42:28;98451.59;;;19.78;33.68
40920;BME280;26652;50.280;19.026;2023-05-10T08:44:42;98453.94;;;19.96;33.22
40920;BME280;26652;50.280;19.026;2023-05-10T08:46:54;98450.12;;;19.82;32.93
40920;BME280;26652;50.280;19.026;2023-05-10T08:49:06;98445.53;;;20.06;33.12
40920;BME280;26652;50.280;19.026;2023-05-10T08:51:24;98444.50;;;20.23;34.33
40920;BME280;26652;50.280;19.026;2023-05-10T08:53:34;98443.84;;;20.33;33.63
40920;BME280;26652;50.280;19.026;2023-05-10T08:55:42;98451.34;;;19.96;33.88
40920;BME280;26652;50.280;19.026;2023-05-10T08:57:55;98449.72;;;19.90;33.19
40920;BME280;26652;50.280;19.026;2023-05-10T09:00:07;98431.84;;;20.05;34.76
40920;BME280;26652;50.280;19.026;2023-05-10T09:02:14;98444.72;;;20.39;34.96
40920;BME280;26652;50.280;19.026;2023-05-10T09:04:27;98457.88;;;20.59;33.65
40920;BME280;26652;50.280;19.026;2023-05-10T09:06:33;98447.06;;;20.89;34.70
40920;BME280;26652;50.280;19.026;2023-05-10T09:08:44;98446.69;;;21.29;34.08
40920;BME280;26652;50.280;19.026;2023-05-10T09:10:55;98449.69;;;21.21;32.83
40920;BME280;26652;50.280;19.026;2023-05-10T09:13:13;98447.91;;;21.21;32.31
40920;BME280;26652;50.280;19.026;2023-05-10T09:15:19;98449.50;;;20.74;33.90
40920;BME280;26652;50.280;19.026;2023-05-10T09:17:34;98444.19;;;21.12;33.53
40920;BME280;26652;50.280;19.026;2023-05-10T09:19:39;98440.03;;;21.11;33.03
40920;BME280;26652;50.280;19.026;2023-05-10T09:21:50;98439.72;;;21.30;33.84
40920;BME280;26652;50.280;19.026;2023-05-10T09:24:04;98438.22;;;21.12;32.90
40920;BME280;26652;50.280;19.026;2023-05-10T09:26:21;98444.03;;;20.97;32.44
40920;BME280;26652;50.280;19.026;2023-05-10T09:28:28;98440.97;;;21.00;33.07
40920;BME280;26652;50.280;19.026;2023-05-10T09:30:41;98435.38;;;21.13;32.21
40920;BME280;26652;50.280;19.026;2023-05-10T09:33:06;98438.13;;;21.02;32.37
40920;BME280;26652;50.280;19.026;2023-05-10T09:35:20;98436.16;;;20.87;33.31
40920;BME280;26652;50.280;19.026;2023-05-10T09:37:30;98441.28;;;20.55;33.23
40920;BME280;26652;50.280;19.026;2023-05-10T09:39:55;98436.66;;;20.18;34.14
40920;BME280;26652;50.280;19.026;2023-05-10T09:42:11;98429.84;;;20.51;34.53
40920;BME280;26652;50.280;19.026;2023-05-10T09:44:25;98431.37;;;21.01;37.08
40920;BME280;26652;50.280;19.026;2023-05-10T09:46:35;98419.03;;;21.08;32.24
40920;BME280;26652;50.280;19.026;2023-05-10T09:48:54;98437.94;;;21.35;32.12
40920;BME280;26652;50.280;19.026;2023-05-10T09:51:24;98445.75;;;21.13;33.84
40920;BME280;26652;50.280;19.026;2023-05-10T09:53:35;98443.28;;;21.56;32.71
40920;BME280;26652;50.280;19.026;2023-05-10T09:55:47;98436.56;;;21.60;31.88
40920;BME280;26652;50.280;19.026;2023-05-10T09:58:01;98438.06;;;21.50;33.05
40920;BME280;26652;50.280;19.026;2023-05-10T10:00:19;98431.00;;;21.78;32.24
40920;BME280;26652;50.280;19.026;2023-05-10T10:02:29;98440.03;;;21.70;31.54
40920;BME280;26652;50.280;19.026;2023-05-10T10:04:40;98440.53;;;21.08;32.29
40920;BME280;26652;50.280;19.026;2023-05-10T10:07:04;98434.91;;;21.43;32.67
40920;BME280;26652;50.280;19.026;2023-05-10T10:09:09;98441.16;;;21.90;32.13
40920;BME280;26652;50.280;19.026;2023-05-10T10:11:38;98429.75;;;22.38;32.60
40920;BME280;26652;50.280;19.026;2023-05-10T10:13:45;98432.47;;;22.73;30.21
40920;BME280;26652;50.280;19.026;2023-05-10T10:15:59;98433.09;;;22.33;30.76
40920;BME280;26652;50.280;19.026;2023-05-10T10:18:13;98422.53;;;21.50;32.10
40920;BME280;26652;50.280;19.026;2023-05-10T10:20:26;98429.16;;;21.73;33.61
40920;BME280;26652;50.280;19.026;2023-05-10T10:22:33;98421.19;;;21.90;32.95
40920;BME280;26652;50.280;19.026;2023-05-10T10:24:45;98425.91;;;21.98;32.20
40920;BME280;26652;50.280;19.026;2023-05-10T10:26:57;98425.50;;;22.11;31.96
40920;BME280;26652;50.280;19.026;2023-05-10T10:29:23;98412.19;;;22.55;33.49
40920;BME280;26652;50.280;19.026;2023-05-10T10:31:40;98414.03;;;22.70;30.95
40920;BME280;26652;50.280;19.026;2023-05-10T10:34:17;98411.19;;;22.71;31.58
40920;BME280;26652;50.280;19.026;2023-05-10T10:36:31;98413.31;;;22.95;32.84
40920;BME280;26652;50.280;19.026;2023-05-10T10:38:59;98408.31;;;22.63;31.68
40920;BME280;26652;50.280;19.026;2023-05-10T10:41:26;98399.69;;;22.47;31.18
40920;BME280;26652;50.280;19.026;2023-05-10T10:43:37;98396.56;;;22.40;31.07
40920;BME280;26652;50.280;19.026;2023-05-10T10:48:50;98400.13;;;21.34;32.22
40920;BME280;26652;50.280;19.026;2023-05-10T10:50:58;98389.22;;;21.32;33.28
40920;BME280;26652;50.280;19.026;2023-05-10T10:53:11;98400.56;;;20.99;33.00
40920;BME280;26652;50.280;19.026;2023-05-10T10:55:22;98392.59;;;21.06;33.16
40920;BME280;26652;50.280;19.026;2023-05-10T10:57:42;98397.22;;;20.72;33.31
40920;BME280;26652;50.280;19.026;2023-05-10T10:59:48;98388.81;;;20.86;33.39
40920;BME280;26652;50.280;19.026;2023-05-10T11:01:59;98378.31;;;20.98;32.63
40920;BME280;26652;50.280;19.026;2023-05-10T11:04:17;98380.19;;;21.35;31.65
40920;BME280;26652;50.280;19.026;2023-05-10T11:06:35;98386.72;;;21.42;32.17
40920;BME280;26652;50.280;19.026;2023-05-10T11:08:43;98385.81;;;21.00;33.09
40920;BME280;26652;50.280;19.026;2023-05-10T11:11:05;98383.34;;;20.83;32.93
40920;BME280;26652;50.280;19.026;2023-05-10T11:13:14;98378.84;;;20.68;33.22
40920;BME280;26652;50.280;19.026;2023-05-10T11:15:30;98372.78;;;20.58;33.43
40920;BME280;26652;50.280;19.026;2023-05-10T11:17:35;98377.56;;;20.71;33.40
40920;BME280;26652;50.280;19.026;2023-05-10T11:20:09;98365.34;;;20.66;33.33
40920;BME280;26652;50.280;19.026;2023-05-10T11:22:16;98365.69;;;20.75;33.04
40920;BME280;26652;50.280;19.026;2023-05-10T11:24:30;98374.69;;;20.67;34.04
40920;BME280;26652;50.280;19.026;2023-05-10T11:26:36;98371.31;;;20.67;33.83
40920;BME280;26652;50.280;19.026;2023-05-10T11:28:48;98365.44;;;20.49;33.67
40920;BME280;26652;50.280;19.026;2023-05-10T11:30:55;98363.37;;;20.30;33.86
40920;BME280;26652;50.280;19.026;2023-05-10T11:33:05;98361.34;;;20.32;34.67
40920;BME280;26652;50.280;19.026;2023-05-10T11:35:11;98354.31;;;20.49;33.47
40920;BME280;26652;50.280;19.026;2023-05-10T11:37:23;98355.72;;;20.88;34.04
40920;BME280;26652;50.280;19.026;2023-05-10T11:39:31;98357.59;;;21.25;34.45
40920;BME280;26652;50.280;19.026;2023-05-10T11:41:40;98364.56;;;21.25;32.76
40920;BME280;26652;50.280;19.026;2023-05-10T11:43:53;98350.50;;;21.15;32.54
40920;BME280;26652;50.280;19.026;2023-05-10T11:46:02;98360.50;;;21.34;33.87
40920;BME280;26652;50.280;19.026;2023-05-10T11:48:07;98354.03;;;21.36;33.89
40920;BME280;26652;50.280;19.026;2023-05-10T11:50:28;98357.00;;;21.55;33.34
40920;BME280;26652;50.280;19.026;2023-05-10T11:52:38;98357.81;;;21.61;33.54
40920;BME280;26652;50.280;19.026;2023-05-10T11:54:58;98356.53;;;21.63;32.91
40920;BME280;26652;50.280;19.026;2023-05-10T11:57:18;98360.09;;;21.52;34.83
40920;BME280;26652;50.280;19.026;2023-05-10T11:59:27;98354.03;;;21.36;32.97